createdAt,value
2017-12-24T00:00:28.462Z,8.40
2017-12-24T00:02:54.856Z,8.63
2017-12-24T00:05:20.919Z,6.73
2017-12-24T00:07:47.027Z,7.63
2017-12-24T00:10:13.061Z,8.00
2017-12-24T00:12:39.086Z,7.20
2017-12-24T00:15:05.137Z,7.10
2017-12-24T00:17:31.172Z,8.20
2017-12-24T00:19:57.184Z,8.20
2017-12-24T00:22:23.226Z,8.30
2017-12-24T00:24:49.240Z,6.60
2017-12-24T00:27:15.330Z,7.30
2017-12-24T00:29:41.759Z,8.23
2017-12-24T00:32:07.801Z,7.80
2017-12-24T00:34:33.834Z,7.30
2017-12-24T00:36:59.862Z,7.83
2017-12-24T00:39:25.911Z,6.23
2017-12-24T00:41:51.957Z,7.77
2017-12-24T00:44:18.017Z,7.20
2017-12-24T00:46:44.079Z,8.30
2017-12-24T00:49:10.083Z,6.80
2017-12-24T00:51:36.090Z,8.40
2017-12-24T00:54:02.084Z,5.33
2017-12-24T00:56:28.575Z,8.10
2017-12-24T00:58:54.697Z,9.33
2017-12-24T01:01:20.783Z,7.83
2017-12-24T01:03:46.901Z,7.70
2017-12-24T01:06:12.932Z,7.80
2017-12-24T01:08:38.962Z,8.23
2017-12-24T01:11:04.980Z,6.50
2017-12-24T01:13:31.074Z,7.63
2017-12-24T01:15:57.101Z,8.27
2017-12-24T01:18:23.205Z,7.20
2017-12-24T01:20:49.209Z,6.47
2017-12-24T01:23:15.566Z,7.27
2017-12-24T01:25:41.597Z,7.63
2017-12-24T01:28:07.602Z,7.60
2017-12-24T01:30:33.670Z,7.80
2017-12-24T01:32:59.738Z,7.63
2017-12-24T01:35:25.798Z,5.10
2017-12-24T01:37:51.792Z,7.07
2017-12-24T01:40:17.858Z,6.70
2017-12-24T01:42:43.910Z,6.63
2017-12-24T01:45:09.945Z,7.83
2017-12-24T01:47:47.973Z,7.50
2017-12-24T01:50:14.016Z,4.30
2017-12-24T01:52:40.073Z,6.27
2017-12-24T01:55:06.455Z,6.53
2017-12-24T01:57:32.477Z,7.77
2017-12-24T01:59:58.514Z,5.83
2017-12-24T02:02:24.637Z,7.10
2017-12-24T02:04:50.620Z,6.93
2017-12-24T02:07:16.749Z,6.30
2017-12-24T02:09:42.744Z,5.60
2017-12-24T02:12:08.777Z,5.97
2017-12-24T02:14:34.818Z,7.80
2017-12-24T02:17:00.854Z,5.93
2017-12-24T02:19:26.910Z,3.80
2017-12-24T02:21:53.358Z,5.60
2017-12-24T02:24:19.394Z,4.70
2017-12-24T02:26:45.421Z,4.40
2017-12-24T02:29:11.477Z,5.30
2017-12-24T02:31:37.486Z,4.20
2017-12-24T02:34:03.566Z,3.90
2017-12-24T02:36:29.603Z,4.67
2017-12-24T02:38:55.725Z,3.73
2017-12-24T02:41:21.789Z,4.93
2017-12-24T02:43:48.685Z,4.53
2017-12-24T02:46:14.706Z,3.73
2017-12-24T02:48:42.397Z,4.30
2017-12-24T02:51:08.450Z,3.20
2017-12-24T02:53:34.467Z,4.80
2017-12-24T02:56:00.497Z,4.83
2017-12-24T02:58:26.486Z,4.70
2017-12-24T03:00:52.521Z,3.73
2017-12-24T03:03:18.546Z,4.23
2017-12-24T03:05:44.583Z,4.10
2017-12-24T03:08:10.602Z,4.50
2017-12-24T03:10:36.646Z,4.30
2017-12-24T03:13:02.654Z,4.07
2017-12-24T03:15:28.982Z,4.20
2017-12-24T03:17:55.012Z,3.80
2017-12-24T03:20:21.036Z,4.87
2017-12-24T03:22:47.096Z,3.93
2017-12-24T03:25:13.162Z,4.53
2017-12-24T03:27:39.231Z,4.40
2017-12-24T03:30:05.278Z,4.27
2017-12-24T03:32:31.466Z,5.20
2017-12-24T03:34:57.506Z,5.10
2017-12-24T03:37:23.582Z,4.40
2017-12-24T03:39:49.637Z,4.37
2017-12-24T03:42:16.102Z,4.30
2017-12-24T03:44:42.125Z,4.00
2017-12-24T03:47:08.136Z,3.87
2017-12-24T03:49:34.152Z,4.33
2017-12-24T03:52:00.180Z,3.97
2017-12-24T03:54:26.221Z,3.70
2017-12-24T03:56:52.224Z,4.03
2017-12-24T03:59:18.254Z,4.70
2017-12-24T04:01:44.301Z,4.50
2017-12-24T04:04:10.359Z,4.93
2017-12-24T04:06:36.382Z,4.20
2017-12-24T04:09:02.714Z,3.87
2017-12-24T04:11:28.742Z,4.40
2017-12-24T04:13:54.730Z,3.80
2017-12-24T04:16:20.966Z,3.73
2017-12-24T04:18:47.082Z,3.50
2017-12-24T04:21:13.097Z,3.27
2017-12-24T04:23:39.117Z,4.00
2017-12-24T04:26:05.169Z,3.53
2017-12-24T04:28:31.242Z,3.77
2017-12-24T04:30:57.280Z,4.17
2017-12-24T04:33:23.275Z,3.63
2017-12-24T04:35:49.664Z,3.37
2017-12-24T04:38:15.725Z,2.63
2017-12-24T04:40:41.783Z,3.60
2017-12-24T04:43:07.826Z,3.50
2017-12-24T04:45:33.886Z,3.40
2017-12-24T04:47:59.991Z,3.87
2017-12-24T04:50:26.036Z,3.23
2017-12-24T04:52:52.081Z,3.23
2017-12-24T04:55:18.088Z,3.87
2017-12-24T04:57:44.144Z,3.87
2017-12-24T05:00:10.211Z,3.63
2017-12-24T05:02:36.599Z,3.27
2017-12-24T05:05:02.810Z,3.77
2017-12-24T05:07:28.790Z,3.67
2017-12-24T05:09:54.835Z,3.53
2017-12-24T05:12:20.855Z,3.63
2017-12-24T05:14:46.926Z,3.67
2017-12-24T05:17:12.959Z,3.33
2017-12-24T05:19:39.009Z,2.80
2017-12-24T05:22:05.026Z,3.50
2017-12-24T05:24:31.085Z,3.20
2017-12-24T05:26:57.109Z,3.43
2017-12-24T05:29:23.151Z,2.60
2017-12-24T05:31:49.313Z,3.30
2017-12-24T05:34:15.309Z,3.53
2017-12-24T05:36:41.368Z,2.73
2017-12-24T05:39:07.417Z,3.50
2017-12-24T05:41:33.787Z,3.70
2017-12-24T05:43:59.814Z,3.50
2017-12-24T05:46:25.850Z,3.30
2017-12-24T05:48:51.882Z,2.90
2017-12-24T05:51:17.842Z,3.83
2017-12-24T05:53:43.909Z,3.43
2017-12-24T05:56:09.934Z,3.90
2017-12-24T05:58:36.039Z,3.57
2017-12-24T06:01:02.135Z,4.17
2017-12-24T06:03:28.186Z,4.77
2017-12-24T06:05:54.216Z,4.47
2017-12-24T06:08:20.230Z,3.30
2017-12-24T06:10:46.265Z,4.47
2017-12-24T06:13:12.319Z,4.40
2017-12-24T06:15:38.329Z,4.10
2017-12-24T06:18:04.379Z,4.70
2017-12-24T06:20:30.408Z,4.73
2017-12-24T06:22:56.466Z,3.70
2017-12-24T06:25:22.864Z,4.30
2017-12-24T06:27:48.905Z,4.20
2017-12-24T06:30:15.020Z,5.37
2017-12-24T06:32:41.102Z,3.97
2017-12-24T06:35:07.161Z,4.13
2017-12-24T06:37:33.201Z,4.70
2017-12-24T06:39:59.244Z,5.97
2017-12-24T06:42:25.333Z,6.40
2017-12-24T06:44:51.374Z,5.30
2017-12-24T06:47:17.454Z,5.03
2017-12-24T06:49:43.521Z,5.13
2017-12-24T06:52:09.970Z,5.50
2017-12-24T06:54:35.956Z,5.60
2017-12-24T06:57:02.021Z,5.30
2017-12-24T06:59:28.131Z,4.77
2017-12-24T07:01:54.149Z,6.63
2017-12-24T07:04:20.229Z,4.80
2017-12-24T07:06:46.235Z,4.80
2017-12-24T07:09:12.283Z,5.70
2017-12-24T07:11:38.309Z,4.03
2017-12-24T07:14:04.361Z,4.13
2017-12-24T07:16:30.422Z,4.70
2017-12-24T07:18:57.047Z,5.70
2017-12-24T07:21:23.107Z,5.50
2017-12-24T07:23:49.170Z,6.50
2017-12-24T07:26:15.234Z,5.77
2017-12-24T07:28:41.349Z,5.40
2017-12-24T07:31:07.545Z,4.87
2017-12-24T07:33:33.591Z,5.23
2017-12-24T07:35:59.625Z,5.70
2017-12-24T07:38:25.632Z,4.33
2017-12-24T07:40:51.765Z,5.20
2017-12-24T07:43:17.816Z,5.37
2017-12-24T07:45:43.862Z,4.50
2017-12-24T07:48:10.023Z,5.60
2017-12-24T07:50:36.486Z,6.57
2017-12-24T07:53:02.544Z,4.80
2017-12-24T07:55:29.593Z,7.90
2017-12-24T07:57:55.755Z,6.90
2017-12-24T08:00:21.827Z,5.63
2017-12-24T08:02:47.967Z,6.20
2017-12-24T08:05:14.084Z,4.90
2017-12-24T08:07:40.102Z,7.10
2017-12-24T08:10:06.173Z,6.70
2017-12-24T08:12:32.249Z,5.90
2017-12-24T08:14:58.279Z,6.20
2017-12-24T08:17:24.358Z,6.83
2017-12-24T08:19:50.437Z,5.70
2017-12-24T08:22:16.486Z,5.27
2017-12-24T08:24:42.602Z,6.50
2017-12-24T08:27:09.555Z,7.23
2017-12-24T08:29:36.203Z,6.47
2017-12-24T08:32:02.386Z,6.60
2017-12-24T08:34:28.385Z,6.70
2017-12-24T08:36:54.423Z,6.40
2017-12-24T08:39:20.505Z,6.87
2017-12-24T08:41:46.725Z,7.17
2017-12-24T08:44:13.170Z,4.67
2017-12-24T08:46:39.328Z,4.27
2017-12-24T08:49:05.369Z,5.80
2017-12-24T08:51:31.367Z,6.53
2017-12-24T08:53:57.508Z,6.07
2017-12-24T08:56:23.618Z,4.47
2017-12-24T08:58:49.667Z,4.53
2017-12-24T09:01:15.692Z,5.10
2017-12-24T09:03:41.710Z,6.63
2017-12-24T09:06:07.797Z,9.00
2017-12-24T09:08:33.838Z,8.93
2017-12-24T09:10:59.855Z,8.43
2017-12-24T09:13:25.906Z,8.10
2017-12-24T09:15:51.994Z,4.27
2017-12-24T09:18:18.038Z,4.53
2017-12-24T09:20:44.090Z,6.73
2017-12-24T09:23:10.152Z,9.10
2017-12-24T09:25:36.198Z,6.97
2017-12-24T09:28:02.234Z,8.60
2017-12-24T09:30:28.312Z,5.97
2017-12-24T09:32:54.344Z,3.83
2017-12-24T09:35:20.542Z,5.10
2017-12-24T09:37:46.668Z,4.47
2017-12-24T09:40:12.694Z,4.33
2017-12-24T09:42:38.778Z,4.90
2017-12-24T09:45:04.895Z,7.37
2017-12-24T09:47:31.009Z,4.03
2017-12-24T09:49:57.469Z,5.10
2017-12-24T09:52:23.677Z,4.03
2017-12-24T09:54:49.716Z,5.30
2017-12-24T09:57:15.785Z,3.77
2017-12-24T09:59:41.882Z,4.47
2017-12-24T10:02:07.926Z,5.90
2017-12-24T10:04:34.072Z,4.13
2017-12-24T10:07:00.225Z,5.73
2017-12-24T10:09:32.772Z,4.47
2017-12-24T10:11:58.976Z,4.07
2017-12-24T10:14:24.983Z,3.60
2017-12-24T10:16:51.341Z,4.00
2017-12-24T10:19:17.440Z,4.50
2017-12-24T10:21:43.489Z,3.43
2017-12-24T10:24:09.550Z,5.03
2017-12-24T10:26:35.586Z,4.93
2017-12-24T10:29:01.749Z,3.73
2017-12-24T10:31:28.586Z,3.63
2017-12-24T10:33:55.041Z,3.53
2017-12-24T10:36:21.090Z,2.67
2017-12-24T10:38:47.158Z,3.00
2017-12-24T10:41:13.218Z,2.90
2017-12-24T10:43:39.361Z,2.30
2017-12-24T10:46:05.546Z,1.70
2017-12-24T10:48:31.583Z,2.07
2017-12-24T10:50:57.956Z,2.30
2017-12-24T10:53:24.000Z,3.30
2017-12-24T10:55:50.054Z,2.70
2017-12-24T10:58:16.163Z,1.77
2017-12-24T11:00:42.195Z,3.43
2017-12-24T11:03:08.295Z,2.63
2017-12-24T11:05:34.324Z,2.20
2017-12-24T11:08:00.429Z,2.17
2017-12-24T11:10:26.845Z,2.70
2017-12-24T11:12:52.926Z,2.60
2017-12-24T11:15:18.975Z,2.40
2017-12-24T11:17:45.047Z,2.70
2017-12-24T11:20:11.114Z,2.90
2017-12-24T11:22:37.179Z,2.50
2017-12-24T11:25:03.301Z,2.60
2017-12-24T11:27:29.297Z,2.10
2017-12-24T11:29:55.409Z,1.60
2017-12-24T11:32:21.615Z,2.10
2017-12-24T11:34:48.779Z,1.80
2017-12-24T11:37:15.348Z,2.30
2017-12-24T11:39:41.816Z,2.90
2017-12-24T11:42:07.925Z,2.23
2017-12-24T11:44:34.078Z,1.80
2017-12-24T11:47:00.110Z,1.40
2017-12-24T11:49:26.247Z,12.50
2017-12-24T11:51:52.660Z,4.27
2017-12-24T11:54:18.743Z,2.50
2017-12-24T11:56:44.785Z,2.50
2017-12-24T11:59:10.853Z,3.37
2017-12-24T12:01:36.952Z,1.93
2017-12-24T12:04:02.980Z,2.23
2017-12-24T12:06:29.077Z,3.30
2017-12-24T12:08:55.090Z,5.33
2017-12-24T12:11:21.152Z,1.40
2017-12-24T12:13:47.230Z,1.97
2017-12-24T12:16:13.323Z,2.10
2017-12-24T12:18:39.398Z,3.60
2017-12-24T12:21:05.488Z,2.50
2017-12-24T12:23:31.562Z,2.73
2017-12-24T12:25:57.587Z,3.20
2017-12-24T12:28:23.778Z,3.17
2017-12-24T12:30:49.823Z,3.27
2017-12-24T12:33:15.993Z,2.90
2017-12-24T12:35:42.056Z,3.40
2017-12-24T12:38:08.125Z,2.70
2017-12-24T12:40:34.193Z,3.17
2017-12-24T12:43:00.240Z,3.23
2017-12-24T12:45:26.302Z,4.00
2017-12-24T12:47:52.364Z,3.40
2017-12-24T12:50:18.413Z,3.23
2017-12-24T12:52:44.814Z,3.60
2017-12-24T12:55:10.837Z,4.10
2017-12-24T12:57:36.885Z,3.07
2017-12-24T13:00:06.027Z,3.23
2017-12-24T13:02:32.060Z,3.93
2017-12-24T13:04:58.476Z,4.13
2017-12-24T13:07:24.524Z,2.87
2017-12-24T13:09:50.568Z,4.53
2017-12-24T13:12:16.636Z,3.90
2017-12-24T13:14:42.713Z,5.63
2017-12-24T13:17:09.177Z,5.97
2017-12-24T13:19:35.234Z,6.27
2017-12-24T13:22:01.276Z,8.07
2017-12-24T13:24:27.313Z,5.37
2017-12-24T13:26:53.370Z,6.03
2017-12-24T13:29:20.003Z,7.10
2017-12-24T13:31:46.017Z,6.90
2017-12-24T13:34:12.094Z,7.17
2017-12-24T13:36:38.173Z,6.17
2017-12-24T13:39:04.192Z,7.77
2017-12-24T13:41:30.606Z,6.57
2017-12-24T13:43:56.576Z,6.03
2017-12-24T13:46:22.650Z,6.70
2017-12-24T13:48:48.786Z,5.83
2017-12-24T13:51:14.875Z,7.33
2017-12-24T13:53:41.302Z,6.00
2017-12-24T13:56:07.345Z,6.20
2017-12-24T13:58:33.342Z,7.13
2017-12-24T14:00:59.418Z,6.17
2017-12-24T14:03:25.456Z,6.20
2017-12-24T14:05:52.232Z,5.70
2017-12-24T14:08:18.321Z,4.87
2017-12-24T14:10:44.345Z,4.70
2017-12-24T14:13:10.421Z,6.10
2017-12-24T14:15:36.737Z,5.70
2017-12-24T14:18:03.108Z,5.90
2017-12-24T14:20:29.148Z,6.13
2017-12-24T14:22:55.116Z,5.50
2017-12-24T14:25:21.158Z,6.53
2017-12-24T14:27:47.159Z,5.40
2017-12-24T14:30:13.590Z,5.47
2017-12-24T14:32:39.574Z,8.33
2017-12-24T14:35:05.618Z,6.33
2017-12-24T14:37:31.654Z,8.40
2017-12-24T14:39:57.729Z,4.70
2017-12-24T14:42:24.134Z,13.23
2017-12-24T14:44:50.170Z,5.30
2017-12-24T14:47:16.220Z,4.57
2017-12-24T14:49:42.264Z,4.67
2017-12-24T14:52:08.311Z,4.37
2017-12-24T14:54:34.669Z,4.07
2017-12-24T14:57:00.717Z,4.43
2017-12-24T14:59:26.755Z,4.73
2017-12-24T15:01:53.310Z,4.27
2017-12-24T15:04:19.315Z,4.03
2017-12-24T15:06:45.705Z,4.00
2017-12-24T15:09:11.729Z,4.37
2017-12-24T15:11:37.720Z,5.63
2017-12-24T15:14:03.792Z,4.20
2017-12-24T15:16:29.860Z,4.43
2017-12-24T15:18:55.907Z,4.13
2017-12-24T15:21:21.985Z,4.30
2017-12-24T15:23:48.509Z,4.30
2017-12-24T15:26:14.577Z,7.07
2017-12-24T15:28:40.881Z,4.10
2017-12-24T15:31:06.936Z,4.40
2017-12-24T15:33:32.933Z,4.00
2017-12-24T15:35:58.970Z,4.20
2017-12-24T15:38:25.025Z,4.70
2017-12-24T15:40:51.391Z,4.67
2017-12-24T15:43:17.452Z,9.10
2017-12-24T15:45:43.522Z,5.40
2017-12-24T15:48:09.574Z,5.00
2017-12-24T15:50:35.746Z,4.83
2017-12-24T15:53:01.817Z,6.00
2017-12-24T15:55:27.868Z,4.20
2017-12-24T15:57:54.286Z,6.50
2017-12-24T16:00:20.297Z,6.20
2017-12-24T16:02:46.349Z,4.53
2017-12-24T16:05:12.422Z,5.67
2017-12-24T16:07:38.470Z,5.60
2017-12-24T16:10:04.643Z,5.50
2017-12-24T16:12:30.658Z,4.63
2017-12-24T16:14:57.078Z,4.60
2017-12-24T16:17:23.173Z,5.90
2017-12-24T16:19:49.221Z,5.10
2017-12-24T16:22:15.290Z,6.00
2017-12-24T16:24:41.313Z,4.70
2017-12-24T16:27:07.341Z,6.23
2017-12-24T16:29:33.381Z,6.27
2017-12-24T16:31:59.776Z,6.07
2017-12-24T16:34:25.790Z,5.03
2017-12-24T16:36:51.849Z,6.47
2017-12-24T16:39:17.871Z,5.80
2017-12-24T16:41:44.178Z,7.20
2017-12-24T16:44:10.292Z,6.57
2017-12-24T16:46:36.306Z,6.43
2017-12-24T16:49:02.769Z,6.60
2017-12-24T16:51:28.856Z,8.03
2017-12-24T16:53:54.872Z,10.40
2017-12-24T16:56:20.961Z,7.30
2017-12-24T16:58:47.004Z,6.63
2017-12-24T17:01:13.389Z,5.60
2017-12-24T17:03:39.411Z,5.93
2017-12-24T17:06:05.482Z,6.37
2017-12-24T17:08:31.547Z,8.07
2017-12-24T17:10:57.603Z,9.57
2017-12-24T17:13:23.657Z,7.43
2017-12-24T17:15:49.716Z,9.40
2017-12-24T17:18:15.799Z,8.60
2017-12-24T17:20:41.834Z,8.53
2017-12-24T17:23:07.926Z,11.73
2017-12-24T17:25:34.071Z,7.60
2017-12-24T17:28:00.499Z,9.97
2017-12-24T17:30:26.515Z,11.00
2017-12-24T17:32:52.560Z,6.63
2017-12-24T17:35:18.622Z,9.53
2017-12-24T17:37:44.656Z,10.77
2017-12-24T17:40:10.666Z,9.67
2017-12-24T17:42:36.775Z,11.37
2017-12-24T17:45:02.861Z,10.10
2017-12-24T17:47:28.950Z,7.87
2017-12-24T17:49:55.006Z,7.90
2017-12-24T17:52:21.060Z,7.67
2017-12-24T17:54:47.513Z,7.60
2017-12-24T17:57:13.551Z,9.23
2017-12-24T17:59:39.594Z,9.10
2017-12-24T18:02:05.666Z,8.83
2017-12-24T18:04:31.788Z,9.00
2017-12-24T18:06:57.826Z,7.73
2017-12-24T18:09:23.844Z,8.80
2017-12-24T18:11:49.877Z,8.43
2017-12-24T18:14:15.902Z,6.47
2017-12-24T18:16:42.034Z,5.63
2017-12-24T18:19:08.070Z,5.20
2017-12-24T18:21:35.037Z,4.80
2017-12-24T18:24:01.069Z,4.63
2017-12-24T18:26:27.097Z,3.70
2017-12-24T18:28:53.174Z,4.13
2017-12-24T18:31:19.218Z,5.20
2017-12-24T18:33:45.275Z,3.17
2017-12-24T18:36:11.297Z,4.60
2017-12-24T18:38:37.326Z,3.60
2017-12-24T18:41:03.354Z,4.30
2017-12-24T18:43:29.397Z,3.43
2017-12-24T18:45:55.397Z,3.87
2017-12-24T18:48:21.785Z,4.13
2017-12-24T18:50:47.840Z,4.27
2017-12-24T18:53:14.032Z,3.70
2017-12-24T18:55:40.172Z,3.73
2017-12-24T18:58:06.247Z,4.17
2017-12-24T19:00:32.352Z,3.80
2017-12-24T19:02:58.434Z,3.50
2017-12-24T19:05:24.493Z,4.07
2017-12-24T19:07:50.514Z,3.00
2017-12-24T19:10:16.562Z,2.90
2017-12-24T19:12:42.597Z,4.27
2017-12-24T19:15:08.644Z,2.67
2017-12-24T19:17:34.808Z,2.70
2017-12-24T19:20:00.805Z,2.70
2017-12-24T19:22:26.851Z,2.83
2017-12-24T19:24:52.892Z,1.80
2017-12-24T19:27:18.985Z,2.33
2017-12-24T19:29:45.033Z,2.20
2017-12-24T19:32:11.424Z,2.60
2017-12-24T19:34:37.484Z,3.50
2017-12-24T19:37:03.490Z,3.50
2017-12-24T19:39:29.560Z,2.23
2017-12-24T19:41:55.561Z,2.33
2017-12-24T19:44:21.602Z,1.90
2017-12-24T19:46:47.644Z,2.37
2017-12-24T19:49:13.686Z,2.83
2017-12-24T19:51:39.689Z,2.53
2017-12-24T19:54:05.749Z,2.37
2017-12-24T19:56:31.802Z,2.80
2017-12-24T19:58:58.274Z,2.40
2017-12-24T20:01:24.338Z,2.57
2017-12-24T20:03:50.395Z,2.00
2017-12-24T20:06:16.469Z,2.20
2017-12-24T20:08:42.530Z,2.53
2017-12-24T20:11:08.569Z,2.23
2017-12-24T20:13:34.713Z,2.07
2017-12-24T20:16:00.781Z,1.80
2017-12-24T20:18:28.181Z,2.50
2017-12-24T20:20:54.296Z,2.07
2017-12-24T20:23:20.229Z,2.30
2017-12-24T20:25:46.237Z,3.37
2017-12-24T20:28:12.327Z,3.30
2017-12-24T20:30:38.373Z,2.67
2017-12-24T20:33:04.467Z,2.60
2017-12-24T20:35:31.860Z,3.20
2017-12-24T20:37:57.913Z,1.90
2017-12-24T20:40:23.952Z,2.30
2017-12-24T20:42:50.076Z,1.80
2017-12-24T20:45:16.197Z,2.07
2017-12-24T20:47:42.304Z,2.03
2017-12-24T20:50:08.361Z,1.73
2017-12-24T20:52:34.425Z,1.80
2017-12-24T20:55:00.454Z,1.73
2017-12-24T20:57:26.478Z,1.73
2017-12-24T20:59:52.562Z,2.00
2017-12-24T21:02:18.585Z,3.03
2017-12-24T21:04:44.694Z,1.60
2017-12-24T21:07:10.714Z,1.70
2017-12-24T21:09:36.811Z,1.60
2017-12-24T21:12:02.925Z,1.70
2017-12-24T21:14:31.105Z,1.80
2017-12-24T21:16:57.184Z,3.50
2017-12-24T21:19:23.226Z,2.97
2017-12-24T21:21:49.279Z,1.90
2017-12-24T21:24:15.337Z,2.23
2017-12-24T21:26:41.423Z,2.00
2017-12-24T21:29:07.490Z,2.13
2017-12-24T21:31:33.575Z,1.70
2017-12-24T21:33:59.628Z,1.63
2017-12-24T21:36:25.678Z,2.00
2017-12-24T21:38:51.720Z,1.40
2017-12-24T21:41:18.277Z,2.57
2017-12-24T21:43:44.326Z,2.00
2017-12-24T21:46:10.397Z,1.80
2017-12-24T21:48:36.462Z,2.27
2017-12-24T21:51:02.606Z,2.00
2017-12-24T21:53:28.667Z,2.50
2017-12-24T21:55:54.714Z,1.80
2017-12-24T21:58:21.214Z,2.03
2017-12-24T22:00:47.260Z,1.97
2017-12-24T22:03:13.314Z,2.30
2017-12-24T22:05:39.313Z,2.27
2017-12-24T22:08:05.691Z,2.20
2017-12-24T22:10:31.697Z,2.40
2017-12-24T22:12:57.689Z,2.63
2017-12-24T22:15:23.931Z,2.93
2017-12-24T22:17:49.922Z,2.53
2017-12-24T22:20:15.991Z,2.23
2017-12-24T22:22:42.041Z,3.73
2017-12-24T22:25:08.156Z,2.40
2017-12-24T22:27:34.182Z,3.40
2017-12-24T22:30:00.208Z,2.90
2017-12-24T22:32:26.644Z,6.23
2017-12-24T22:34:53.001Z,2.93
2017-12-24T22:37:19.010Z,2.10
2017-12-24T22:39:45.063Z,3.37
2017-12-24T22:42:11.134Z,3.37
2017-12-24T22:44:37.161Z,3.20
2017-12-24T22:47:03.156Z,2.57
2017-12-24T22:49:29.193Z,2.60
2017-12-24T22:51:55.238Z,2.03
2017-12-24T22:54:21.262Z,2.53
2017-12-24T22:56:47.298Z,3.10
2017-12-24T22:59:13.317Z,2.47
2017-12-24T23:01:39.793Z,3.90
2017-12-24T23:04:05.817Z,2.97
2017-12-24T23:06:32.045Z,2.60
2017-12-24T23:08:58.144Z,3.17
2017-12-24T23:11:24.188Z,3.37
2017-12-24T23:13:50.251Z,2.70
2017-12-24T23:16:16.665Z,3.17
2017-12-24T23:18:42.683Z,3.10
2017-12-24T23:21:08.728Z,3.23
2017-12-24T23:23:34.782Z,3.17
2017-12-24T23:26:00.837Z,2.23
2017-12-24T23:28:27.282Z,2.50
2017-12-24T23:30:53.293Z,2.40
2017-12-24T23:33:19.365Z,2.70
2017-12-24T23:35:45.421Z,2.87
2017-12-24T23:38:11.493Z,2.60
2017-12-24T23:40:37.493Z,4.50
2017-12-24T23:43:03.532Z,3.00
2017-12-24T23:45:29.605Z,2.70
2017-12-24T23:47:55.617Z,2.37
2017-12-24T23:50:21.685Z,2.40
2017-12-24T23:52:47.734Z,3.13
2017-12-24T23:55:13.728Z,2.60
2017-12-24T23:57:39.754Z,2.93
